Time;durP1;ratioP1;P1;durP2;ratioP2;P2;SDS_P1;SDS_P2;PMS_P1;PMS_P2;Temp;Humidity;BMP_temperature;BMP_pressure;BME280_temperature;BME280_humidity;BME280_pressure;Samples;Min_cycle;Max_cycle;Signal;HPM_P1;HPM_P2
2022/11/10 00:01:05;;;;;;;26.20;9.20;;;;;;;42.17;34.86;101033.69;5094984;28;20397;-79
2022/11/10 00:03:31;;;;;;;16.03;7.80;;;;;;;42.28;34.66;101022.06;5076420;28;20953;-79
2022/11/10 00:05:57;;;;;;;17.00;9.73;;;;;;;42.32;34.29;101024.94;5094877;28;20390;-79
2022/11/10 00:08:23;;;;;;;23.23;11.13;;;;;;;42.31;34.39;101015.97;5059664;28;20421;-78
2022/11/10 00:11:00;;;;;;;14.00;8.73;;;;;;;42.17;34.54;101011.88;5076145;28;20532;-78
2022/11/10 00:13:30;;;;;;;18.87;9.73;;;;;;;42.15;34.90;101009.47;5076264;28;20675;-78
2022/11/10 00:18:49;;;;;;;14.63;10.27;;;;;;;42.12;35.51;101010.94;5083029;28;20408;-78
2022/11/10 00:21:16;;;;;;;17.57;9.80;;;;;;;42.27;35.21;101006.03;5076128;28;20470;-78
2022/11/10 00:23:42;;;;;;;15.20;9.30;;;;;;;42.05;35.46;100994.31;5092447;28;20512;-77
2022/11/10 00:26:15;;;;;;;17.60;9.57;;;;;;;41.94;35.23;100992.31;5076055;28;20428;-78
2022/11/10 00:28:41;;;;;;;18.03;11.97;;;;;;;42.20;34.93;100994.88;5092765;28;20482;-78
2022/11/10 00:31:08;;;;;;;26.23;10.20;;;;;;;42.24;34.84;100991.16;5103041;28;20492;-78
2022/11/10 00:33:36;;;;;;;21.73;11.07;;;;;;;42.17;35.12;100990.09;5096159;28;20408;-78
2022/11/10 00:36:02;;;;;;;14.77;8.97;;;;;;;42.18;35.19;100986.25;5095961;28;20420;-78
2022/11/10 00:38:28;;;;;;;24.63;9.40;;;;;;;42.06;35.38;100976.84;5096018;28;20436;-78
2022/11/10 00:40:54;;;;;;;21.40;9.27;;;;;;;42.34;34.53;100987.22;5095773;28;20457;-78
2022/11/10 00:43:19;;;;;;;11.83;8.00;;;;;;;42.38;34.35;100979.97;5096207;28;20420;-78
2022/11/10 00:45:46;;;;;;;21.17;9.20;;;;;;;42.30;34.56;100980.84;5095733;28;20524;-78
2022/11/10 00:48:12;;;;;;;21.60;13.17;;;;;;;42.07;34.64;100975.72;5095620;28;20675;-78
2022/11/10 00:50:38;;;;;;;19.50;9.50;;;;;;;41.86;34.99;100972.16;5095837;28;20557;-77
2022/11/10 00:53:04;;;;;;;16.70;9.27;;;;;;;41.85;35.59;100968.63;5095457;28;20427;-78
2022/11/10 00:55:30;;;;;;;14.53;8.80;;;;;;;41.86;35.22;100962.06;5095632;28;20511;-79
2022/11/10 00:57:56;;;;;;;15.10;8.23;;;;;;;42.10;34.94;100964.13;5095701;28;20553;-79
2022/11/10 01:00:22;;;;;;;15.97;7.00;;;;;;;42.01;35.01;100960.69;5095580;28;20420;-79
2022/11/10 01:02:48;;;;;;;12.10;8.37;;;;;;;42.09;34.90;100956.28;5113995;28;20443;-79
2022/11/10 01:05:14;;;;;;;20.77;10.00;;;;;;;41.89;35.30;100940.75;5095456;28;20460;-79
2022/11/10 01:07:40;;;;;;;21.00;9.77;;;;;;;42.11;34.79;100943.13;5095444;28;20423;-78
2022/11/10 01:10:06;;;;;;;20.83;11.40;;;;;;;42.17;34.40;100941.00;5095574;28;20416;-78
2022/11/10 01:12:32;;;;;;;15.17;8.80;;;;;;;42.21;34.52;100948.19;5095488;28;20205;-78
2022/11/10 01:14:58;;;;;;;18.83;9.17;;;;;;;42.16;34.46;100956.56;5095423;28;20400;-78
2022/11/10 01:17:24;;;;;;;15.00;11.23;;;;;;;42.26;34.68;100949.94;5095166;28;20502;-78
2022/11/10 01:19:50;;;;;;;14.27;9.33;;;;;;;42.27;34.83;100946.06;5113948;28;20196;-78
2022/11/10 01:22:16;;;;;;;21.37;8.67;;;;;;;42.06;35.19;100946.06;5113485;28;20447;-78
2022/11/10 01:24:42;;;;;;;20.20;8.90;;;;;;;42.20;34.81;100943.88;5094845;28;20515;-79
2022/11/10 01:27:08;;;;;;;16.00;9.20;;;;;;;41.82;35.54;100946.72;5095288;28;20440;-79
2022/11/10 01:29:34;;;;;;;21.40;8.63;;;;;;;41.92;35.69;100938.13;5095153;28;20469;-78
2022/11/10 01:31:59;;;;;;;23.80;11.10;;;;;;;41.96;35.91;100938.28;5091572;28;20462;-78
2022/11/10 01:34:25;;;;;;;18.30;9.47;;;;;;;42.23;35.08;100932.28;5075080;28;20428;-78
2022/11/10 01:36:51;;;;;;;17.03;8.87;;;;;;;42.07;35.46;100929.38;5074743;28;20440;-78
2022/11/10 01:39:17;;;;;;;19.03;9.63;;;;;;;41.75;36.27;100927.41;5074790;28;20262;-77
2022/11/10 01:41:43;;;;;;;17.80;9.00;;;;;;;41.63;36.51;100922.63;5075333;28;20404;-78
2022/11/10 01:44:27;;;;;;;14.93;9.73;;;;;;;41.46;36.57;100922.75;5074579;28;20538;-78
2022/11/10 01:46:54;;;;;;;16.80;9.60;;;;;;;41.91;35.91;100922.94;5074733;28;20982;-80
2022/11/10 01:49:24;;;;;;;14.60;9.87;;;;;;;42.20;35.49;100913.91;5074576;28;20413;-80
2022/11/10 01:52:06;;;;;;;19.10;9.47;;;;;;;41.42;36.64;100908.19;5074740;28;20907;-80
2022/11/10 01:54:36;;;;;;;13.83;7.10;;;;;;;41.67;35.65;100903.69;5057952;28;20412;-78
2022/11/10 01:57:07;;;;;;;15.90;8.80;;;;;;;41.86;35.64;100902.13;5093058;28;20416;-79
2022/11/10 01:59:39;;;;;;;24.23;11.13;;;;;;;42.07;35.70;100896.66;5093112;28;20392;-78
2022/11/10 02:02:29;;;;;;;11.67;9.43;;;;;;;41.74;35.83;100899.34;5074538;28;20417;-78
2022/11/10 02:04:55;;;;;;;15.83;9.60;;;;;;;41.83;35.59;100902.00;5077665;28;20558;-78
2022/11/10 02:07:22;;;;;;;14.27;9.10;;;;;;;41.78;35.75;100897.53;5079025;28;20895;-78
2022/11/10 02:09:47;;;;;;;15.07;9.83;;;;;;;41.37;36.24;100889.31;5097139;28;20426;-77
2022/11/10 02:12:14;;;;;;;20.43;9.90;;;;;;;41.60;35.78;100887.88;5081525;28;20491;-77
2022/11/10 02:14:41;;;;;;;14.70;8.90;;;;;;;41.85;35.81;100881.47;5087285;28;20427;-78
2022/11/10 02:17:07;;;;;;;15.80;9.70;;;;;;;41.63;36.25;100887.22;5078476;28;20772;-78
2022/11/10 02:19:40;;;;;;;13.47;8.50;;;;;;;41.73;36.09;100878.63;5078345;28;20405;-78
2022/11/10 02:22:06;;;;;;;19.83;8.80;;;;;;;41.56;36.16;100868.69;5078500;28;20501;-78
2022/11/10 02:24:32;;;;;;;24.63;11.77;;;;;;;41.59;36.02;100878.91;5061478;28;20504;-78
2022/11/10 02:26:59;;;;;;;25.00;12.20;;;;;;;41.52;36.11;100872.41;5078357;28;20950;-78
2022/11/10 02:29:25;;;;;;;20.43;13.80;;;;;;;41.77;35.92;100868.72;5096773;28;20403;-78
2022/11/10 02:31:51;;;;;;;25.53;11.87;;;;;;;41.58;35.99;100873.81;5089509;28;20470;-78
2022/11/10 02:34:17;;;;;;;22.37;12.13;;;;;;;41.38;36.50;100872.66;5096750;28;20397;-78
2022/11/10 02:36:43;;;;;;;21.47;12.60;;;;;;;41.14;36.80;100864.28;5078053;28;20800;-78
2022/11/10 02:39:09;;;;;;;24.40;12.07;;;;;;;41.07;37.11;100853.94;5078281;28;20846;-78
2022/11/10 02:41:35;;;;;;;26.47;12.83;;;;;;;41.25;36.78;100849.16;5078023;28;20437;-78
2022/11/10 02:44:03;;;;;;;19.93;10.67;;;;;;;41.56;36.17;100859.72;5096321;28;20450;-77
2022/11/10 02:46:29;;;;;;;15.13;10.50;;;;;;;41.60;36.08;100855.19;5096537;28;20159;-78
2022/11/10 02:48:55;;;;;;;16.80;10.70;;;;;;;41.27;36.50;100852.38;5096201;28;20792;-78
2022/11/10 02:51:21;;;;;;;19.47;11.40;;;;;;;41.24;36.54;100851.06;5077676;28;20420;-78
2022/11/10 02:53:48;;;;;;;22.33;10.20;;;;;;;41.40;36.25;100845.91;5096380;28;20393;-78
2022/11/10 02:56:14;;;;;;;22.73;11.43;;;;;;;41.49;36.22;100849.34;5096184;28;20484;-78
2022/11/10 02:58:40;;;;;;;23.43;13.33;;;;;;;41.53;36.28;100824.97;5077704;28;20523;-78
2022/11/10 03:01:06;;;;;;;23.30;14.70;;;;;;;41.08;36.79;100831.81;5077711;28;20428;-78
2022/11/10 03:03:33;;;;;;;18.10;14.23;;;;;;;40.84;37.22;100820.72;5077408;28;20417;-77
2022/11/10 03:05:59;;;;;;;24.93;11.33;;;;;;;41.20;36.66;100820.22;5061076;28;20989;-78
2022/11/10 03:08:25;;;;;;;21.03;12.50;;;;;;;40.83;37.62;100826.50;5060905;28;20421;-78
2022/11/10 03:10:55;;;;;;;23.77;10.83;;;;;;;41.16;36.52;100821.22;5077621;28;20947;-78
2022/11/10 03:13:23;;;;;;;19.70;10.40;;;;;;;41.21;36.56;100824.53;5077451;28;20440;-78
2022/11/10 03:15:49;;;;;;;25.67;14.57;;;;;;;40.51;37.36;100828.66;5060872;28;20458;-77
2022/11/10 03:18:15;;;;;;;26.57;13.77;;;;;;;40.94;37.20;100825.78;5077251;28;20424;-78
2022/11/10 03:20:42;;;;;;;21.27;13.53;;;;;;;40.74;37.44;100830.03;5095598;28;20436;-78
2022/11/10 03:23:08;;;;;;;18.10;12.90;;;;;;;40.54;37.60;100819.88;5095429;28;20452;-78
2022/11/10 03:25:34;;;;;;;19.83;13.10;;;;;;;40.69;37.46;100827.47;5077114;28;20475;-78
2022/11/10 03:28:00;;;;;;;23.40;10.83;;;;;;;41.22;36.87;100834.28;5077083;28;20822;-78
2022/11/10 03:30:26;;;;;;;22.80;12.87;;;;;;;40.65;37.16;100829.28;5079954;28;20944;-78
2022/11/10 03:32:52;;;;;;;26.30;13.50;;;;;;;41.01;36.91;100826.09;5097096;28;20984;-77
2022/11/10 03:35:18;;;;;;;22.60;12.07;;;;;;;40.78;36.84;100836.41;5097284;28;20400;-78
2022/11/10 03:37:44;;;;;;;16.73;11.63;;;;;;;40.39;37.42;100826.63;5097302;28;20419;-78
2022/11/10 03:40:10;;;;;;;19.87;12.20;;;;;;;40.85;36.92;100833.19;5097302;28;20432;-78
2022/11/10 03:42:41;;;;;;;25.23;13.27;;;;;;;40.97;36.23;100824.34;5097065;28;20808;-77
2022/11/10 03:45:08;;;;;;;28.17;14.03;;;;;;;41.21;35.92;100832.69;5096954;28;20456;-78
2022/11/10 03:47:34;;;;;;;19.73;14.40;;;;;;;41.00;36.48;100831.84;5096880;28;21002;-80
2022/11/10 03:50:00;;;;;;;19.83;14.07;;;;;;;41.36;35.81;100836.78;5096999;28;20469;-80
2022/11/10 03:52:26;;;;;;;24.30;15.17;;;;;;;41.29;36.02;100842.72;5096862;28;20546;-80
2022/11/10 03:54:51;;;;;;;21.70;13.57;;;;;;;40.65;36.55;100837.44;5096967;28;20185;-80
2022/11/10 03:57:17;;;;;;;25.73;13.63;;;;;;;40.52;37.63;100841.16;5096810;28;20204;-79
2022/11/10 03:59:43;;;;;;;25.07;14.30;;;;;;;40.86;36.86;100840.22;5096827;28;20185;-79
2022/11/10 04:02:09;;;;;;;23.20;13.10;;;;;;;40.53;37.27;100845.47;5096799;28;20419;-80
2022/11/10 04:10:04;;;;;;;23.07;14.73;;;;;;;40.71;36.54;100836.13;5115042;28;20391;-80
2022/11/10 04:15:48;;;;;;;24.63;14.23;;;;;;;40.58;36.75;100839.88;5114850;28;20383;-78
2022/11/10 04:18:20;;;;;;;24.63;15.73;;;;;;;40.37;37.51;100838.91;5096690;28;20452;-78
2022/11/10 04:20:50;;;;;;;26.20;15.80;;;;;;;40.12;37.77;100835.13;5081196;28;20428;-78
2022/11/10 04:23:35;;;;;;;27.13;15.53;;;;;;;40.16;37.64;100836.91;5096127;28;20479;-78
2022/11/10 04:26:27;;;;;;;25.43;14.40;;;;;;;40.37;37.49;100838.91;5081549;28;21017;-78
2022/11/10 04:28:55;;;;;;;21.40;14.77;;;;;;;39.96;38.18;100832.06;5081370;28;20416;-79
2022/11/10 04:31:23;;;;;;;28.30;15.37;;;;;;;40.19;37.72;100830.81;5093014;28;20443;-78
2022/11/10 04:33:50;;;;;;;38.53;16.83;;;;;;;40.27;37.79;100834.66;5075854;28;20436;-78
2022/11/10 04:36:20;;;;;;;19.67;15.73;;;;;;;39.52;38.49;100844.03;5075838;28;20436;-78
2022/11/10 04:38:46;;;;;;;28.93;16.90;;;;;;;39.57;38.71;100841.97;5093008;28;20400;-78
2022/11/10 04:41:12;;;;;;;25.20;16.90;;;;;;;40.24;37.56;100844.22;5076460;28;20405;-78
2022/11/10 04:43:39;;;;;;;32.07;14.60;;;;;;;40.25;37.84;100834.16;5075812;28;20444;-78
2022/11/10 04:46:06;;;;;;;29.30;16.27;;;;;;;40.29;37.64;100830.47;5075504;28;20792;-78
2022/11/10 04:48:33;;;;;;;31.10;18.73;;;;;;;40.32;37.61;100836.38;5075609;28;20925;-78
2022/11/10 04:51:06;;;;;;;27.00;17.27;;;;;;;40.53;37.54;100840.03;5093888;28;20814;-78
2022/11/10 04:53:32;;;;;;;31.73;19.20;;;;;;;40.72;37.43;100848.59;5075784;28;20412;-78
2022/11/10 04:55:58;;;;;;;24.53;16.90;;;;;;;40.65;37.10;100851.03;5075487;28;20482;-79
2022/11/10 04:58:24;;;;;;;32.00;16.77;;;;;;;39.94;38.29;100853.34;5093857;28;20756;-78
2022/11/10 05:00:50;;;;;;;28.93;19.60;;;;;;;40.57;37.09;100851.84;5075909;28;20401;-78
2022/11/10 05:03:16;;;;;;;27.97;21.20;;;;;;;40.12;38.63;100854.16;5075366;28;20440;-78
2022/11/10 05:05:42;;;;;;;30.83;21.83;;;;;;;40.35;38.35;100849.31;5075117;28;20475;-78
2022/11/10 05:08:08;;;;;;;32.57;22.93;;;;;;;40.16;38.29;100853.19;5082366;27;20415;-78
2022/11/10 05:10:36;;;;;;;41.90;20.17;;;;;;;40.05;38.64;100856.56;5098800;27;20787;-78
2022/11/10 05:13:03;;;;;;;33.63;22.77;;;;;;;40.12;38.26;100857.66;5115664;27;20443;-78
2022/11/10 05:15:31;;;;;;;39.80;23.90;;;;;;;40.18;38.23;100863.75;5098933;27;20788;-78
2022/11/10 05:17:57;;;;;;;32.60;21.70;;;;;;;39.92;38.46;100869.16;5115546;27;20423;-78
2022/11/10 05:20:24;;;;;;;32.97;24.43;;;;;;;39.97;38.39;100866.28;5104945;28;20476;-77
2022/11/10 05:25:37;;;;;;;37.03;24.03;;;;;;;40.28;38.14;100861.50;5094953;28;20598;-77
2022/11/10 05:28:05;;;;;;;34.50;21.40;;;;;;;39.56;39.31;100862.09;5083570;28;20432;-78
2022/11/10 05:30:31;;;;;;;34.93;23.77;;;;;;;40.23;38.32;100860.84;5091620;28;20415;-78
2022/11/10 05:32:57;;;;;;;34.73;24.90;;;;;;;40.17;38.31;100854.78;5075150;28;20460;-76
2022/11/10 05:35:24;;;;;;;29.50;22.20;;;;;;;40.29;38.10;100860.38;5090094;28;20862;-79
2022/11/10 05:37:50;;;;;;;36.40;24.40;;;;;;;40.46;37.85;100866.91;5092586;28;20389;-78
2022/11/10 05:40:17;;;;;;;37.90;25.23;;;;;;;40.55;37.64;100863.03;5091235;28;20416;-78
2022/11/10 05:42:53;;;;;;;35.13;25.43;;;;;;;39.25;39.60;100870.31;5113391;28;20428;-77
2022/11/10 05:45:22;;;;;;;42.33;27.00;;;;;;;39.80;38.91;100872.50;5094797;28;20447;-77
2022/11/10 05:47:49;;;;;;;44.20;27.50;;;;;;;39.89;38.83;100867.06;5094935;28;20434;-77
2022/11/10 05:50:16;;;;;;;31.50;25.10;;;;;;;40.12;38.32;100876.69;5111737;28;20516;-75
2022/11/10 05:52:44;;;;;;;48.50;26.00;;;;;;;39.65;38.79;100884.63;5094797;28;20416;-78
2022/11/10 05:55:11;;;;;;;35.07;26.37;;;;;;;39.61;39.17;100888.31;5113308;28;20442;-79
2022/11/10 05:57:38;;;;;;;36.30;24.67;;;;;;;39.91;38.91;100879.25;5094696;28;20415;-78
2022/11/10 06:00:05;;;;;;;38.00;25.17;;;;;;;40.01;38.48;100891.69;5094384;28;20427;-77
2022/11/10 06:02:31;;;;;;;38.30;25.20;;;;;;;40.15;38.54;100889.66;5094965;28;20416;-78
2022/11/10 06:04:57;;;;;;;45.87;24.73;;;;;;;40.10;38.39;100875.44;5094684;28;20523;-79
2022/11/10 06:07:23;;;;;;;46.87;30.30;;;;;;;39.99;38.56;100883.84;5086914;28;20444;-76
2022/11/10 06:09:49;;;;;;;47.30;28.87;;;;;;;39.12;40.16;100893.72;5083646;28;20515;-77
2022/11/10 06:12:15;;;;;;;41.60;26.13;;;;;;;39.69;39.35;100898.38;5080983;28;20532;-72
2022/11/10 06:14:41;;;;;;;43.87;28.03;;;;;;;39.34;40.20;100902.91;5097592;28;20425;-74
2022/11/10 06:17:07;;;;;;;44.90;28.07;;;;;;;40.06;38.51;100907.84;5088491;28;20416;-75
2022/11/10 06:19:33;;;;;;;216.23;118.43;;;;;;;40.06;38.96;100912.50;5080711;28;20420;-76
2022/11/10 06:21:59;;;;;;;81.83;50.20;;;;;;;39.93;39.25;100915.03;5077618;28;20460;-77
2022/11/10 06:24:25;;;;;;;35.23;26.50;;;;;;;40.33;38.31;100927.66;5080122;28;21143;-76
2022/11/10 06:26:51;;;;;;;43.10;26.73;;;;;;;40.38;38.29;100922.06;5075637;28;20519;-75
2022/11/10 06:29:16;;;;;;;43.60;29.00;;;;;;;40.72;37.34;100924.75;5092815;28;20396;-76
2022/11/10 06:31:42;;;;;;;37.40;25.37;;;;;;;40.74;38.21;100927.94;5086360;28;20458;-74
2022/11/10 06:34:08;;;;;;;33.83;26.07;;;;;;;41.11;37.17;100944.66;5093431;28;20580;-75
2022/11/10 06:36:34;;;;;;;39.23;26.60;;;;;;;41.32;37.25;100948.28;5111936;28;20446;-78
2022/11/10 06:39:00;;;;;;;35.83;24.30;;;;;;;41.26;36.89;100946.84;5084266;28;20428;-75
2022/11/10 06:41:26;;;;;;;37.47;24.57;;;;;;;41.32;36.56;100950.16;5090057;28;20420;-78
2022/11/10 06:43:52;;;;;;;39.23;27.10;;;;;;;41.23;36.71;100952.91;5082946;28;20417;-76
2022/11/10 06:46:18;;;;;;;42.40;30.57;;;;;;;41.41;36.64;100952.88;5098663;28;20795;-77
2022/11/10 06:48:44;;;;;;;44.93;27.07;;;;;;;41.50;36.44;100950.91;5074268;28;20447;-76
2022/11/10 06:51:10;;;;;;;41.80;27.50;;;;;;;41.71;36.26;100962.63;5087013;28;20503;-76
2022/11/10 06:53:36;;;;;;;39.83;24.20;;;;;;;41.62;36.17;100956.44;5077179;28;20588;-81
2022/11/10 06:56:02;;;;;;;46.87;25.80;;;;;;;41.49;36.39;100965.63;5103034;28;20185;-81
2022/11/10 06:58:27;;;;;;;43.87;26.67;;;;;;;41.72;36.11;100963.41;5094471;28;20182;-82
2022/11/10 07:00:53;;;;;;;46.10;25.93;;;;;;;41.57;36.83;100967.53;5085144;28;20431;-81
2022/11/10 07:03:19;;;;;;;43.57;27.13;;;;;;;41.32;36.82;100955.63;5093887;28;20696;-83
2022/11/10 07:05:45;;;;;;;37.83;21.77;;;;;;;41.53;36.67;100966.59;5101516;28;20198;-81
2022/11/10 07:08:17;;;;;;;38.40;25.60;;;;;;;41.43;36.97;100965.00;5086815;28;20790;-83
2022/11/10 07:10:50;;;;;;;31.43;21.33;;;;;;;41.57;36.43;100964.81;5084508;28;20417;-82
2022/11/10 07:13:16;;;;;;;32.37;21.20;;;;;;;41.60;36.29;100964.94;5091597;28;20872;-82
2022/11/10 07:15:42;;;;;;;36.67;23.10;;;;;;;41.65;36.66;100972.13;5092008;28;20428;-78
2022/11/10 07:18:08;;;;;;;34.23;22.70;;;;;;;41.66;36.27;100967.47;5083643;28;20420;-80
2022/11/10 07:20:34;;;;;;;35.97;23.30;;;;;;;41.52;36.58;100968.50;5087526;28;20795;-78
2022/11/10 07:23:03;;;;;;;24.70;20.97;;;;;;;41.65;36.50;100972.13;5091569;28;20862;-80
2022/11/10 07:25:31;;;;;;;39.50;22.87;;;;;;;41.72;36.66;100983.28;5095303;28;21012;-80
2022/11/10 07:27:59;;;;;;;33.10;22.73;;;;;;;41.68;36.66;100987.00;5097888;28;20465;-81
2022/11/10 07:30:30;;;;;;;33.13;21.50;;;;;;;41.63;36.74;100985.28;5097870;28;20473;-77
2022/11/10 07:33:03;;;;;;;32.97;22.50;;;;;;;41.50;36.95;100991.75;5116300;28;20483;-81
2022/11/10 07:35:30;;;;;;;41.33;22.57;;;;;;;41.74;36.81;100991.13;5081130;28;20408;-80
2022/11/10 07:37:57;;;;;;;45.43;22.83;;;;;;;41.81;36.85;101005.88;5115951;28;20444;-82
2022/11/10 07:40:23;;;;;;;30.90;21.40;;;;;;;41.70;36.90;101003.81;5079598;28;20561;-84
2022/11/10 07:42:49;;;;;;;31.93;18.13;;;;;;;41.00;37.75;101006.78;5097499;28;21017;-82
2022/11/10 07:45:15;;;;;;;35.47;18.87;;;;;;;41.12;37.95;100995.22;5097480;28;20452;-80
2022/11/10 07:47:41;;;;;;;18.03;14.63;;;;;;;40.57;39.17;101004.09;5097524;28;20484;-81
2022/11/10 07:50:07;;;;;;;26.23;18.17;;;;;;;40.53;38.81;101005.88;5097333;28;20469;-81
2022/11/10 07:52:34;;;;;;;24.23;17.87;;;;;;;40.44;39.06;101007.75;5097390;28;20457;-80
2022/11/10 07:55:00;;;;;;;26.20;17.87;;;;;;;40.78;38.54;101013.22;5116251;28;20392;-81
2022/11/10 07:57:26;;;;;;;27.83;16.30;;;;;;;40.94;38.16;101020.88;5097123;28;20999;-81
2022/11/10 07:59:52;;;;;;;25.33;16.50;;;;;;;41.01;38.04;101016.56;5097133;28;20468;-81
2022/11/10 08:02:18;;;;;;;25.03;14.13;;;;;;;40.95;37.87;101020.56;5096391;28;20412;-82
2022/11/10 08:04:44;;;;;;;24.63;13.37;;;;;;;41.49;37.29;101025.53;5096996;28;20466;-81
2022/11/10 08:07:10;;;;;;;24.73;15.83;;;;;;;41.41;36.81;101026.38;5115979;28;20393;-80
2022/11/10 08:09:35;;;;;;;23.83;13.40;;;;;;;41.83;36.26;101033.56;5096949;28;20797;-80
2022/11/10 08:12:01;;;;;;;30.20;13.93;;;;;;;41.85;36.18;101039.47;5097260;28;20205;-80
2022/11/10 08:14:27;;;;;;;26.20;13.47;;;;;;;41.93;36.35;101037.03;5097291;28;20411;-80
2022/11/10 08:16:53;;;;;;;21.20;16.80;;;;;;;41.78;36.17;101036.47;5097007;28;20419;-81
2022/11/10 08:19:19;;;;;;;21.30;14.03;;;;;;;40.97;37.33;101039.28;5097044;28;20277;-82
2022/11/10 08:21:45;;;;;;;19.00;13.10;;;;;;;42.08;35.90;101039.19;5097563;28;20961;-80
2022/11/10 08:24:11;;;;;;;27.47;15.10;;;;;;;41.92;36.08;101041.69;5096300;28;20324;-79
2022/11/10 08:26:37;;;;;;;26.23;15.00;;;;;;;41.96;35.96;101053.53;5079497;28;20489;-79
2022/11/10 08:29:03;;;;;;;21.43;14.50;;;;;;;41.76;36.41;101043.41;5096418;28;20423;-79
2022/11/10 08:31:32;;;;;;;28.23;15.13;;;;;;;41.74;36.29;101051.03;5092745;28;20174;-79
2022/11/10 08:33:58;;;;;;;22.93;14.00;;;;;;;42.38;35.59;101040.75;5094444;28;20399;-79
2022/11/10 08:36:24;;;;;;;25.20;14.40;;;;;;;42.01;35.87;101050.63;5076095;28;20424;-77
2022/11/10 08:38:49;;;;;;;20.63;13.10;;;;;;;41.69;36.73;101051.25;5075825;28;20417;-77
2022/11/10 08:41:15;;;;;;;27.83;13.80;;;;;;;41.46;36.98;101042.53;5059236;28;20425;-78
2022/11/10 08:43:42;;;;;;;22.33;14.20;;;;;;;41.20;37.23;101048.06;5075676;28;20444;-78
2022/11/10 08:46:08;;;;;;;21.23;13.47;;;;;;;41.79;37.06;101050.91;5094074;28;20676;-80
2022/11/10 08:48:33;;;;;;;21.13;15.77;;;;;;;42.33;35.42;101057.31;5075535;28;20424;-80
2022/11/10 08:51:01;;;;;;;18.77;14.33;;;;;;;42.53;35.22;101057.63;5075884;28;20483;-80
2022/11/10 08:53:26;;;;;;;31.77;14.33;;;;;;;41.97;36.22;101066.03;5093984;28;20409;-78
2022/11/10 08:55:57;;;;;;;29.07;13.73;;;;;;;42.26;35.83;101070.69;5075520;28;20419;-78
2022/11/10 08:58:23;;;;;;;23.20;11.60;;;;;;;42.13;35.83;101060.81;5075406;28;20916;-78
2022/11/10 09:00:50;;;;;;;17.27;12.47;;;;;;;42.53;34.89;101066.59;5075335;28;20423;-78
2022/11/10 09:03:19;;;;;;;20.83;12.20;;;;;;;42.48;34.90;101071.47;5093929;28;20401;-76
2022/11/10 09:05:46;;;;;;;26.97;13.23;;;;;;;42.35;35.52;101065.94;5075389;28;20460;-78
2022/11/10 09:08:13;;;;;;;18.67;12.10;;;;;;;42.70;35.53;101068.44;5075245;28;20429;-77
2022/11/10 09:10:41;;;;;;;25.97;12.33;;;;;;;42.47;35.49;101073.41;5075040;28;20420;-76
2022/11/10 09:13:09;;;;;;;21.57;12.80;;;;;;;42.51;35.34;101068.09;5075036;28;20453;-76
2022/11/10 09:15:35;;;;;;;17.90;13.30;;;;;;;42.14;35.83;101065.91;5075099;28;20432;-75
2022/11/10 09:18:03;;;;;;;19.60;13.73;;;;;;;42.42;35.73;101057.25;5075019;28;20448;-76
2022/11/10 09:20:32;;;;;;;26.23;14.63;;;;;;;42.24;35.58;101055.78;5075226;28;20844;-76
2022/11/10 09:23:11;;;;;;;20.63;14.77;;;;;;;42.53;35.58;101061.16;5093216;28;20401;-76
2022/11/10 09:25:37;;;;;;;23.17;12.60;;;;;;;42.52;35.42;101059.56;5058875;28;20508;-75
2022/11/10 09:28:04;;;;;;;21.80;12.97;;;;;;;42.11;36.17;101057.59;5074910;28;20455;-75
2022/11/10 09:30:31;;;;;;;20.07;14.30;;;;;;;42.46;35.84;101063.63;5074919;28;20918;-75
2022/11/10 09:32:59;;;;;;;18.07;13.87;;;;;;;42.74;35.56;101063.91;5074897;28;20864;-76
2022/11/10 09:35:26;;;;;;;35.00;15.30;;;;;;;42.43;35.94;101068.97;5074714;28;20474;-76
2022/11/10 09:37:52;;;;;;;24.57;15.97;;;;;;;42.35;36.38;101057.75;5074870;28;20445;-75
2022/11/10 09:40:47;;;;;;;24.57;14.93;;;;;;;42.51;35.63;101066.16;5074675;28;20519;-75
2022/11/10 09:43:22;;;;;;;25.63;14.30;;;;;;;42.59;35.89;101061.78;5087296;28;20431;-75
2022/11/10 09:45:53;;;;;;;27.30;13.90;;;;;;;42.70;35.63;101060.25;5074671;28;20459;-76
2022/11/10 09:48:28;;;;;;;21.70;13.63;;;;;;;42.28;36.11;101054.78;5092945;28;20927;-77
2022/11/10 09:51:02;;;;;;;18.63;12.43;;;;;;;42.35;36.09;101049.59;5093281;28;20401;-77
2022/11/10 09:53:48;;;;;;;19.33;13.40;;;;;;;42.47;36.07;101045.34;5074483;28;20486;-78
2022/11/10 09:56:25;;;;;;;20.43;14.17;;;;;;;42.47;36.30;101048.06;5057921;28;20840;-76
2022/11/10 09:58:51;;;;;;;25.37;13.73;;;;;;;42.93;35.34;101045.09;5093053;28;20439;-77
2022/11/10 10:01:24;;;;;;;25.13;14.30;;;;;;;42.57;36.07;101042.19;5074597;28;20497;-76
2022/11/10 10:04:06;;;;;;;25.07;12.33;;;;;;;42.50;36.05;101036.50;5092888;28;20389;-78
2022/11/10 10:06:44;;;;;;;26.30;12.23;;;;;;;42.71;36.28;101042.72;5058375;28;20456;-77
2022/11/10 10:09:52;;;;;;;24.70;12.40;;;;;;;42.81;35.83;101053.25;5092589;28;20393;-77
2022/11/10 10:12:40;;;;;;;24.67;13.00;;;;;;;43.09;35.62;101053.44;5058139;28;20432;-76
2022/11/10 10:15:08;;;;;;;23.47;14.83;;;;;;;43.08;35.52;101053.78;5057584;28;21353;-76
2022/11/10 10:18:05;;;;;;;32.43;14.80;;;;;;;42.82;35.73;101057.56;5074466;28;20409;-76
2022/11/10 10:21:12;;;;;;;18.63;12.13;;;;;;;43.04;34.72;101047.44;5093038;28;20409;-76
2022/11/10 10:23:48;;;;;;;32.50;13.07;;;;;;;42.84;35.46;101049.81;5092002;28;21016;-76
2022/11/10 10:26:17;;;;;;;23.23;12.10;;;;;;;42.93;35.80;101050.56;5062031;28;20482;-73
2022/11/10 10:28:45;;;;;;;18.63;15.00;;;;;;;42.50;35.08;101053.66;5078291;28;20719;-80
2022/11/10 10:31:21;;;;;;;16.00;10.13;;;;;;;43.14;33.44;101047.78;5083887;28;20420;-75
2022/11/10 10:33:48;;;;;;;24.87;9.27;;;;;;;43.01;32.85;101042.63;5078284;28;20450;-75
2022/11/10 10:36:22;;;;;;;22.80;9.60;;;;;;;43.03;32.84;101045.81;5096715;28;20384;-75
2022/11/10 10:39:00;;;;;;;25.37;9.97;;;;;;;43.21;32.79;101051.88;5095064;28;20420;-75
2022/11/10 10:41:29;;;;;;;16.93;8.70;;;;;;;43.18;33.06;101042.44;5077994;28;20815;-74
2022/11/10 10:44:01;;;;;;;18.20;8.90;;;;;;;42.99;33.02;101051.16;5078282;28;20420;-75
2022/11/10 10:46:30;;;;;;;28.27;11.17;;;;;;;43.12;33.11;101052.00;5094784;28;20943;-75
2022/11/10 10:49:09;;;;;;;15.23;10.10;;;;;;;43.44;32.98;101045.69;5096463;28;20429;-76
2022/11/10 10:51:35;;;;;;;33.10;10.70;;;;;;;43.34;32.91;101048.03;5077748;28;20915;-76
2022/11/10 10:54:01;;;;;;;15.67;9.20;;;;;;;43.48;33.16;101043.09;5077791;28;20420;-76
2022/11/10 10:56:32;;;;;;;25.43;10.23;;;;;;;43.25;33.32;101039.94;5078060;28;20427;-75
2022/11/10 10:59:04;;;;;;;15.23;10.10;;;;;;;42.85;33.89;101026.88;5077698;28;20540;-74
2022/11/10 11:01:31;;;;;;;20.13;11.83;;;;;;;43.01;33.45;101032.50;5096238;28;20445;-74
2022/11/10 11:03:59;;;;;;;29.23;11.33;;;;;;;43.26;33.43;101022.44;5077451;28;20424;-74
2022/11/10 11:06:34;;;;;;;20.33;10.20;;;;;;;43.23;33.42;101025.84;5077536;28;20415;-75
2022/11/10 11:09:14;;;;;;;21.07;12.10;;;;;;;43.37;33.20;101017.31;5094311;28;20420;-75
2022/11/10 11:11:43;;;;;;;24.23;10.57;;;;;;;43.09;33.15;101015.22;5077472;28;20989;-75
2022/11/10 11:14:18;;;;;;;18.43;9.80;;;;;;;43.22;33.38;100999.69;5095896;28;20393;-75
2022/11/10 11:16:52;;;;;;;26.37;10.40;;;;;;;42.61;34.23;101015.91;5078322;28;20451;-75
2022/11/10 11:19:22;;;;;;;21.50;11.37;;;;;;;42.67;33.88;101000.13;5095892;28;20440;-74
2022/11/10 11:22:09;;;;;;;33.20;13.90;;;;;;;42.68;34.10;100999.78;5077303;28;20923;-75
2022/11/10 11:24:41;;;;;;;15.60;9.80;;;;;;;42.70;34.16;100985.78;5076830;28;20884;-74
2022/11/10 11:27:20;;;;;;;17.03;10.70;;;;;;;42.95;32.90;100989.38;5077098;28;20802;-74
2022/11/10 11:29:52;;;;;;;33.90;10.60;;;;;;;43.18;33.17;100993.31;5077104;28;20420;-74
2022/11/10 11:32:30;;;;;;;20.53;10.47;;;;;;;43.33;32.88;100998.06;5095360;28;20416;-74